createdAt,value
2022-08-10T00:04:09.488Z,102648.47
2022-08-10T00:09:25.294Z,102642.69
2022-08-10T00:14:28.227Z,102639.69
2022-08-10T00:19:34.796Z,102635.00
2022-08-10T00:24:57.997Z,102636.25
2022-08-10T00:30:01.072Z,102626.00
2022-08-10T00:35:03.985Z,102635.00
2022-08-10T00:40:09.797Z,102624.03
2022-08-10T00:45:12.996Z,102621.88
2022-08-10T00:50:18.036Z,102623.22
2022-08-10T00:55:22.396Z,102627.13
2022-08-10T01:00:25.633Z,102627.16
2022-08-10T01:05:28.737Z,102637.06
2022-08-10T01:10:44.689Z,102629.41
2022-08-10T01:15:57.396Z,102624.59
2022-08-10T01:21:56.725Z,102625.13
2022-08-10T01:27:27.295Z,102635.22
2022-08-10T01:32:48.777Z,102629.81
2022-08-10T01:38:00.114Z,102629.72
2022-08-10T01:43:08.670Z,102629.38
2022-08-10T01:48:32.211Z,102626.53
2022-08-10T01:53:41.497Z,102626.75
2022-08-10T01:58:47.425Z,102615.66
2022-08-10T02:04:01.687Z,102612.47
2022-08-10T02:09:10.060Z,102614.63
2022-08-10T02:14:15.760Z,102626.63
2022-08-10T02:19:23.072Z,102625.88
2022-08-10T02:24:28.518Z,102623.72
2022-08-10T02:29:31.628Z,102627.66
2022-08-10T02:34:38.250Z,102630.00
2022-08-10T02:39:41.740Z,102619.81
2022-08-10T02:45:18.654Z,102619.38
2022-08-10T02:50:21.765Z,102632.41
2022-08-10T02:55:32.851Z,102630.91
2022-08-10T03:00:42.012Z,102637.72
2022-08-10T03:05:48.923Z,102639.88
2022-08-10T03:10:53.811Z,102641.41
2022-08-10T03:15:57.777Z,102637.63
2022-08-10T03:21:02.626Z,102638.34
2022-08-10T03:26:06.329Z,102638.94
2022-08-10T03:31:10.022Z,102635.97
2022-08-10T03:36:42.357Z,102640.09
2022-08-10T03:41:40.991Z,102644.47
2022-08-10T03:46:52.095Z,102640.00
2022-08-10T03:51:56.952Z,102637.34
2022-08-10T03:57:01.883Z,102647.34
2022-08-10T04:02:45.530Z,102649.28
2022-08-10T04:07:31.424Z,102654.09
2022-08-10T04:12:34.308Z,102656.00
2022-08-10T04:18:04.053Z,102656.22
2022-08-10T04:23:04.699Z,102666.44
2022-08-10T04:28:08.195Z,102666.88
2022-08-10T04:33:12.436Z,102674.13
2022-08-10T04:38:18.252Z,102674.81
2022-08-10T04:43:21.341Z,102677.88
2022-08-10T04:48:43.197Z,102680.13
2022-08-10T04:54:05.112Z,102678.06
2022-08-10T04:59:11.695Z,102677.16
2022-08-10T05:04:38.372Z,102672.72
2022-08-10T05:10:03.755Z,102677.22
2022-08-10T05:15:01.764Z,102669.00
2022-08-10T05:20:07.281Z,102670.34
2022-08-10T05:25:13.854Z,102675.16
2022-08-10T05:30:19.082Z,102672.00
2022-08-10T05:35:22.219Z,102678.59
2022-08-10T05:40:27.204Z,102675.56
2022-08-10T05:45:30.304Z,102679.66
2022-08-10T05:50:34.784Z,102679.28
2022-08-10T05:55:39.103Z,102667.47
2022-08-10T06:00:49.918Z,102665.56
2022-08-10T06:05:55.641Z,102661.13
2022-08-10T06:12:26.290Z,102669.16
2022-08-10T06:16:26.775Z,102665.81
2022-08-10T06:21:30.158Z,102663.19
2022-08-10T06:26:34.503Z,102659.19
2022-08-10T06:31:47.855Z,102659.41
2022-08-10T06:36:54.309Z,102661.13
2022-08-10T06:42:15.783Z,102667.41
2022-08-10T06:47:23.617Z,102669.50
2022-08-10T06:52:28.070Z,102682.13
2022-08-10T06:57:35.958Z,102676.78
2022-08-10T07:02:45.326Z,102664.66
2022-08-10T07:07:50.906Z,102662.53
2022-08-10T07:12:58.859Z,102656.84
2022-08-10T07:18:03.996Z,102656.25
2022-08-10T07:23:55.657Z,102665.13
2022-08-10T07:28:34.685Z,102670.13
2022-08-10T07:33:39.641Z,102666.44
2022-08-10T07:38:44.320Z,102661.97
2022-08-10T07:43:50.758Z,102668.69
2022-08-10T07:49:01.155Z,102672.88
2022-08-10T07:54:07.434Z,102679.47
2022-08-10T07:59:15.992Z,102673.31
2022-08-10T08:04:20.651Z,102667.94
2022-08-10T08:09:25.624Z,102666.31
2022-08-10T08:14:30.875Z,102671.34
2022-08-10T08:19:37.557Z,102662.53
2022-08-10T08:24:52.493Z,102664.84
2022-08-10T08:29:57.443Z,102661.72
2022-08-10T08:35:04.569Z,102658.19
2022-08-10T08:40:11.574Z,102657.28
2022-08-10T08:45:25.178Z,102653.88
2022-08-10T08:50:41.952Z,102656.13
2022-08-10T08:56:05.736Z,102647.72
2022-08-10T09:01:24.133Z,102643.41
2022-08-10T09:06:56.073Z,102640.66
2022-08-10T09:12:14.395Z,102631.75
2022-08-10T09:17:24.455Z,102640.13
2022-08-10T09:22:42.634Z,102642.03
2022-08-10T09:27:49.705Z,102632.50
2022-08-10T09:36:26.170Z,102624.44
2022-08-10T09:38:32.975Z,102620.59
2022-08-10T09:43:44.800Z,102615.44
2022-08-10T09:49:00.570Z,102615.69
2022-08-10T09:54:11.466Z,102611.03
2022-08-10T10:00:00.315Z,102610.47
2022-08-10T10:05:07.259Z,102604.91
2022-08-10T10:10:14.690Z,102599.66
2022-08-10T10:15:31.329Z,102593.84
2022-08-10T10:20:41.775Z,102578.44
2022-08-10T10:25:54.514Z,102579.97
2022-08-10T10:31:16.684Z,102580.66
2022-08-10T10:36:23.216Z,102568.66
2022-08-10T10:41:56.250Z,102560.97
2022-08-10T10:47:13.073Z,102556.97
2022-08-10T10:52:28.818Z,102555.72
2022-08-10T10:57:58.973Z,102545.75
2022-08-10T11:03:24.846Z,102554.94
2022-08-10T11:08:35.118Z,102547.38
2022-08-10T11:14:25.179Z,102551.03
2022-08-10T11:19:15.448Z,102538.56
2022-08-10T11:24:47.110Z,102535.03
2022-08-10T11:29:56.656Z,102543.09
2022-08-10T11:35:11.323Z,102535.75
2022-08-10T11:40:23.405Z,102526.75
2022-08-10T11:45:31.498Z,102521.50
2022-08-10T11:50:40.527Z,102516.44
2022-08-10T11:55:49.306Z,102506.75
2022-08-10T12:00:55.561Z,102510.34
2022-08-10T12:05:59.726Z,102499.03
2022-08-10T12:11:04.561Z,102492.78
2022-08-10T12:16:10.335Z,102495.81
2022-08-10T12:21:21.977Z,102493.72
2022-08-10T12:26:29.585Z,102490.16
2022-08-10T12:31:37.090Z,102486.66
2022-08-10T12:36:43.254Z,102471.53
2022-08-10T12:41:57.838Z,102477.13
2022-08-10T12:47:14.423Z,102458.03
2022-08-10T12:52:21.436Z,102449.00
2022-08-10T12:57:27.299Z,102433.78
2022-08-10T13:02:33.763Z,102436.50
2022-08-10T13:08:24.378Z,102433.78
2022-08-10T13:13:04.479Z,102430.16
2022-08-10T13:18:17.877Z,102437.38
2022-08-10T13:23:26.823Z,102431.97
2022-08-10T13:28:43.354Z,102429.31
2022-08-10T13:34:39.448Z,102423.91
2022-08-10T13:39:18.262Z,102425.72
2022-08-10T13:44:31.463Z,102428.38
2022-08-10T13:49:46.185Z,102412.13
2022-08-10T13:54:50.103Z,102408.56
2022-08-10T14:00:35.451Z,102404.91
2022-08-10T14:05:25.890Z,102399.53
2022-08-10T14:11:08.643Z,102390.44
2022-08-10T14:15:55.846Z,102389.56
2022-08-10T14:20:59.322Z,102374.19
2022-08-10T14:26:08.951Z,102375.13
2022-08-10T14:31:21.173Z,102377.84
2022-08-10T14:36:33.173Z,102376.97
2022-08-10T14:42:02.974Z,102376.03
2022-08-10T14:47:51.700Z,102365.13
2022-08-10T14:52:30.725Z,102361.47
2022-08-10T14:58:20.399Z,102357.88
2022-08-10T15:03:11.171Z,102345.28
2022-08-10T15:08:36.680Z,102356.16
2022-08-10T15:14:14.813Z,102346.22
2022-08-10T15:20:00.772Z,102343.38
2022-08-10T15:24:55.395Z,102346.88
2022-08-10T15:29:58.968Z,102358.41
2022-08-10T15:35:22.883Z,102350.28
2022-08-10T15:40:48.971Z,102351.84
2022-08-10T15:46:01.640Z,102342.69
2022-08-10T15:51:11.592Z,102344.41
2022-08-10T15:56:18.431Z,102348.81
2022-08-10T16:02:04.724Z,102341.50
2022-08-10T16:07:06.209Z,102334.16
2022-08-10T16:12:15.791Z,102325.03
2022-08-10T16:17:21.153Z,102327.75
2022-08-10T16:22:35.538Z,102323.09
2022-08-10T16:27:42.177Z,102327.59
2022-08-10T16:32:46.648Z,102329.34
2022-08-10T16:37:59.004Z,102317.63
2022-08-10T16:43:05.271Z,102319.44
2022-08-10T16:48:10.205Z,102307.69
2022-08-10T16:53:17.098Z,102318.16
2022-08-10T16:58:24.983Z,102314.41
2022-08-10T17:04:06.513Z,102306.97
2022-08-10T17:09:01.219Z,102303.41
2022-08-10T17:14:08.535Z,102290.81
2022-08-10T17:19:13.884Z,102300.50
2022-08-10T17:24:20.021Z,102303.13
2022-08-10T17:29:58.063Z,102302.13
2022-08-10T17:34:57.143Z,102301.94
2022-08-10T17:40:07.048Z,102300.78
2022-08-10T17:45:46.476Z,102308.63
2022-08-10T17:50:44.089Z,102296.72
2022-08-10T17:55:51.154Z,102294.75
2022-08-10T18:00:57.146Z,102298.22
2022-08-10T18:06:20.718Z,102294.41
2022-08-10T18:11:28.317Z,102288.75
2022-08-10T18:16:34.788Z,102301.00
2022-08-10T18:21:41.535Z,102293.63
2022-08-10T18:26:48.344Z,102301.28
2022-08-10T18:31:57.770Z,102309.84
2022-08-10T18:37:02.408Z,102330.16
2022-08-10T18:42:11.708Z,102330.59
2022-08-10T18:47:17.835Z,102340.00
2022-08-10T18:52:24.170Z,102344.97
2022-08-10T18:57:42.716Z,102343.81
2022-08-10T19:03:00.863Z,102347.88
2022-08-10T19:08:30.036Z,102353.72
2022-08-10T19:13:55.358Z,102348.78
2022-08-10T19:19:21.843Z,102354.34
2022-08-10T19:24:36.549Z,102360.97
2022-08-10T19:30:10.234Z,102371.94
2022-08-10T19:35:24.070Z,102369.53
2022-08-10T19:40:44.695Z,102376.22
2022-08-10T19:46:02.487Z,102372.03
2022-08-10T19:51:14.377Z,102377.63
2022-08-10T19:56:34.077Z,102378.88
2022-08-10T20:01:55.629Z,102370.47
2022-08-10T20:07:16.612Z,102378.13
2022-08-10T20:12:29.986Z,102376.16
2022-08-10T20:17:51.241Z,102368.59
2022-08-10T20:23:09.612Z,102382.50
2022-08-10T20:28:19.732Z,102374.44
2022-08-10T20:33:32.706Z,102383.88
2022-08-10T20:38:44.369Z,102385.88
2022-08-10T20:43:59.113Z,102387.53
2022-08-10T20:49:16.777Z,102392.38
2022-08-10T20:54:21.232Z,102385.81
2022-08-10T21:00:04.567Z,102380.25
2022-08-10T21:05:17.756Z,102380.50
2022-08-10T21:10:34.644Z,102382.03
2022-08-10T21:15:50.947Z,102374.00
2022-08-10T21:21:09.474Z,102378.50
2022-08-10T21:26:18.694Z,102384.44
2022-08-10T21:31:37.320Z,102378.41
2022-08-10T21:36:50.592Z,102381.75
2022-08-10T21:48:06.596Z,102369.63
2022-08-10T21:53:43.689Z,102363.78
2022-08-10T21:59:14.593Z,102374.50
2022-08-10T22:04:35.645Z,102370.16
2022-08-10T22:10:03.915Z,102372.84
2022-08-10T22:16:05.640Z,102371.28
2022-08-10T22:21:17.474Z,102368.00
2022-08-10T22:27:10.233Z,102365.75
2022-08-10T22:32:58.144Z,102365.38
2022-08-10T22:38:38.881Z,102359.78
2022-08-10T22:44:01.173Z,102355.50
2022-08-10T22:49:03.256Z,102345.38
2022-08-10T22:54:31.986Z,102348.19
2022-08-10T22:59:36.376Z,102348.94
2022-08-10T23:04:45.581Z,102346.91
2022-08-10T23:10:02.600Z,102350.03
2022-08-10T23:15:33.203Z,102349.13
2022-08-10T23:20:38.819Z,102347.25
2022-08-10T23:25:56.804Z,102340.78
2022-08-10T23:31:02.676Z,102341.69
2022-08-10T23:36:33.829Z,102343.44
2022-08-10T23:41:33.513Z,102344.25
2022-08-10T23:46:42.422Z,102343.16
2022-08-10T23:51:55.159Z,102344.66
2022-08-10T23:57:01.933Z,102337.44
